Tuesday, August 21, 2018, 12:04 AM GMT
Back to Local

CYGK, Kingston, Ont.

Location: , , Canada Lat: 44.217
Local Time: 12:04 AM GMT ( 0:04 GMT) Lon: -76.6
Time Zone: GMT Elev: 305 ft

Show me the last for .
Show Decoded

2018-08-20 23:00 METAR CYGK 202300Z 14002KT 15SM FEW150 BKN270 23/16 A3007 RMK AC1CI6 SLP184
                 DENSITY ALT 1200FT =
2018-08-20 22:00 METAR CYGK 202200Z 15003KT 15SM FEW030 BKN270 24/15 A3007 RMK CU1CI5 CU TR
                 SLP185 DENSITY ALT 1300FT =
2018-08-20 21:00 METAR CYGK 202100Z 19005KT 170V230 15SM FEW030 FEW270 25/15 A3008 RMK CU1CI1
                 SLP188 DENSITY ALT 1300FT =
2018-08-20 20:00 METAR CYGK 202000Z 18005KT 15SM FEW035 FEW250 24/14 A3009 RMK CU1CI2 CU TR
                 SLP189 DENSITY ALT 1300FT =
2018-08-20 19:00 METAR CYGK 201900Z 17005KT 15SM FEW030 24/16 A3009 RMK CU1 CU TR SLP189 DENSITY
                 ALT 1300FT =
2018-08-20 18:00 METAR CYGK 201800Z 18009KT 15SM FEW032 SCT210 25/17 A3012 RMK CU1CI2 SLP202
                 DENSITY ALT 1300FT =
2018-08-20 17:00 METAR CYGK 201700Z 17009KT 15SM FEW035 SCT220 24/18 A3013 RMK CU1CI2 SLP204
                 DENSITY ALT 1300FT =
2018-08-20 16:00 METAR CYGK 201600Z 17012KT 15SM FEW030 SCT250 24/17 A3014 RMK CU1CI3 SLP208
                 DENSITY ALT 1200FT =
2018-08-20 15:00 METAR CYGK 201500Z 17010G16KT 15SM FEW032 FEW070 SCT220 24/17 A3015 RMK
                 CU1AC1CI4 CU TR AC TR SLP212 DENSITY ALT 1200FT =
2018-08-20 14:00 METAR CYGK 201400Z 15010KT 15SM FEW020 FEW070 SCT250 23/18 A3016 RMK CU1AC1CI3
                 CU TR SLP213 DENSITY ALT 1100FT =
2018-08-20 13:00 METAR CYGK 201300Z 14006KT 15SM FEW020 FEW070 SCT160 SCT250 21/19 A3015 RMK
                 CU1AC2AC1CI1 CU TR SLP210 DENSITY ALT 900FT =
2018-08-20 12:00 METAR CYGK 201200Z 11006KT 15SM FEW062 FEW120 BKN250 20/19 A3014 RMK SC2AC1CI3
                 AC TR SLP208 DENSITY ALT 700FT =
2018-08-20 11:00 METAR CYGK 201100Z 03003KT 15SM FEW060 BKN250 17/17 A3013 RMK SC2CI3 SLP205
                 DENSITY ALT 400FT =
2018-08-20 10:00 METAR CYGK 201000Z 35003KT 330V060 15SM FEW060 FEW130 BKN250 15/15 A3012 RMK
                 SC1AC1CI3 SLP199 =
2018-08-20 03:00 METAR CYGK 200300Z 34005KT 15SM SCT055 18/18 A3007 RMK CU3 LAST STFD OBS/NEXT
                 201000 UTC SLP184 DENSITY ALT 600FT =
2018-08-20 02:00 METAR CYGK 200200Z 00000KT 15SM FEW070 SCT250 19/18 A3006 RMK AC1CI2 SLP180
                 DENSITY ALT 700FT =
2018-08-20 01:00 METAR CYGK 200100Z VRB02KT 15SM FEW065 FEW250 21/18 A3005 RMK SC1CI1 SLP177
                 DENSITY ALT 900FT =

Support USWX by starting your Amazon purchase here.